createdAt,value
2018-12-10T00:01:07.905Z,29.80
2018-12-10T00:03:37.180Z,29.80
2018-12-10T00:06:06.553Z,29.80
2018-12-10T00:08:35.824Z,30.10
2018-12-10T00:11:05.127Z,30.00
2018-12-10T00:13:34.375Z,30.50
2018-12-10T00:16:03.722Z,30.40
2018-12-10T00:18:33.009Z,31.20
2018-12-10T00:21:02.339Z,31.00
2018-12-10T00:23:31.810Z,31.20
2018-12-10T00:26:01.056Z,31.20
2018-12-10T00:28:30.284Z,30.90
2018-12-10T00:30:59.642Z,30.80
2018-12-10T00:33:28.986Z,30.80
2018-12-10T00:35:58.218Z,30.90
2018-12-10T00:38:27.431Z,30.30
2018-12-10T00:40:56.710Z,30.00
2018-12-10T00:43:25.945Z,30.10
2018-12-10T00:45:55.136Z,30.20
2018-12-10T00:48:24.467Z,30.50
2018-12-10T00:50:53.874Z,31.10
2018-12-10T00:53:23.127Z,30.40
2018-12-10T00:55:52.369Z,30.50
2018-12-10T00:58:21.607Z,30.20
2018-12-10T01:00:50.826Z,30.40
2018-12-10T01:03:20.174Z,30.60
2018-12-10T01:05:49.424Z,30.70
2018-12-10T01:08:19.215Z,30.70
2018-12-10T01:10:48.628Z,30.70
2018-12-10T01:13:17.882Z,30.80
2018-12-10T01:15:47.188Z,30.20
2018-12-10T01:18:16.483Z,30.40
2018-12-10T01:20:45.720Z,30.30
2018-12-10T01:23:14.955Z,30.60
2018-12-10T01:25:44.180Z,30.20
2018-12-10T01:28:13.464Z,29.80
2018-12-10T01:30:42.756Z,29.60
2018-12-10T01:33:12.072Z,29.80
2018-12-10T01:35:41.386Z,29.50
2018-12-10T01:38:10.691Z,29.50
2018-12-10T01:40:39.941Z,29.50
2018-12-10T01:43:09.187Z,29.60
2018-12-10T01:45:38.522Z,29.80
2018-12-10T01:48:07.779Z,29.70
2018-12-10T01:50:37.050Z,29.50
2018-12-10T01:53:06.363Z,29.70
2018-12-10T01:55:35.627Z,29.50
2018-12-10T01:58:04.931Z,29.50
2018-12-10T02:00:34.335Z,29.90
2018-12-10T02:03:03.703Z,30.80
2018-12-10T02:05:33.060Z,30.60
2018-12-10T02:08:02.350Z,30.50
2018-12-10T02:10:31.615Z,30.60
2018-12-10T02:13:00.904Z,30.60
2018-12-10T02:15:30.128Z,30.40
2018-12-10T02:17:59.570Z,30.10
2018-12-10T02:20:28.792Z,30.50
2018-12-10T02:22:58.147Z,30.40
2018-12-10T02:25:27.436Z,30.20
2018-12-10T02:27:56.710Z,30.00
2018-12-10T02:30:26.077Z,30.10
2018-12-10T02:32:55.550Z,30.40
2018-12-10T02:35:24.952Z,30.90
2018-12-10T02:37:54.257Z,31.00
2018-12-10T02:40:23.633Z,31.20
2018-12-10T02:42:52.925Z,31.60
2018-12-10T02:45:22.284Z,31.50
2018-12-10T02:47:51.801Z,31.70
2018-12-10T02:50:21.167Z,32.10
2018-12-10T02:52:50.443Z,32.70
2018-12-10T02:55:19.741Z,31.60
2018-12-10T02:57:49.056Z,32.40
2018-12-10T03:00:18.351Z,31.20
2018-12-10T03:02:47.593Z,31.10
2018-12-10T03:05:16.948Z,31.00
2018-12-10T03:07:46.270Z,31.00
2018-12-10T03:10:15.576Z,31.00
2018-12-10T03:12:44.906Z,30.90
2018-12-10T03:15:14.248Z,30.90
2018-12-10T03:17:43.473Z,31.30
2018-12-10T03:20:12.857Z,31.70
2018-12-10T03:22:42.154Z,31.70
2018-12-10T03:25:11.465Z,31.10
2018-12-10T03:27:40.729Z,31.10
2018-12-10T03:30:10.104Z,31.10
2018-12-10T03:32:39.365Z,32.10
2018-12-10T03:35:08.744Z,31.10
2018-12-10T03:37:38.038Z,31.30
2018-12-10T03:40:07.325Z,31.20
2018-12-10T03:42:36.613Z,31.40
2018-12-10T03:45:06.234Z,31.50
2018-12-10T03:47:35.625Z,31.80
2018-12-10T03:50:05.916Z,31.60
2018-12-10T03:52:35.191Z,32.10
2018-12-10T03:55:04.588Z,31.80
2018-12-10T03:57:33.858Z,31.50
2018-12-10T04:00:03.261Z,31.20
2018-12-10T04:02:32.463Z,31.30
2018-12-10T04:05:01.828Z,31.60
2018-12-10T04:07:31.087Z,31.20
2018-12-10T04:10:00.453Z,31.00
2018-12-10T04:12:29.681Z,30.70
2018-12-10T04:14:58.881Z,30.40
2018-12-10T04:17:28.153Z,30.70
2018-12-10T04:19:57.392Z,30.80
2018-12-10T04:22:26.789Z,30.50
2018-12-10T04:24:56.149Z,30.20
2018-12-10T04:27:25.467Z,30.00
2018-12-10T04:29:54.752Z,30.30
2018-12-10T04:32:24.043Z,30.10
2018-12-10T04:34:53.236Z,30.40
2018-12-10T04:37:22.516Z,30.40
2018-12-10T04:39:51.750Z,30.90
2018-12-10T04:42:21.088Z,30.40
2018-12-10T04:44:50.318Z,30.80
2018-12-10T04:47:19.636Z,30.90
2018-12-10T04:49:48.827Z,30.80
2018-12-10T04:52:18.059Z,31.00
2018-12-10T04:54:47.283Z,31.10
2018-12-10T04:57:16.552Z,30.90
2018-12-10T04:59:52.585Z,30.70
2018-12-10T05:02:17.268Z,30.20
2018-12-10T05:04:46.577Z,30.00
2018-12-10T05:07:15.779Z,30.20
2018-12-10T05:09:45.830Z,30.00
2018-12-10T05:12:15.133Z,30.00
2018-12-10T05:14:44.572Z,30.30
2018-12-10T05:17:13.836Z,29.90
2018-12-10T05:19:43.135Z,30.00
2018-12-10T05:22:12.343Z,30.10
2018-12-10T05:24:41.590Z,30.20
2018-12-10T05:27:10.908Z,30.10
2018-12-10T05:29:40.211Z,29.90
2018-12-10T05:32:09.523Z,29.90
2018-12-10T05:34:38.740Z,29.70
2018-12-10T05:37:08.139Z,30.00
2018-12-10T05:39:38.579Z,30.10
2018-12-10T05:42:08.019Z,29.90
2018-12-10T05:44:37.342Z,29.90
2018-12-10T05:47:06.602Z,29.80
2018-12-10T05:49:35.892Z,29.70
2018-12-10T05:52:05.312Z,29.90
2018-12-10T05:54:34.591Z,30.20
2018-12-10T05:57:03.816Z,30.00
2018-12-10T05:59:33.091Z,29.80
2018-12-10T06:02:02.418Z,30.00
2018-12-10T06:04:31.722Z,30.00
2018-12-10T06:07:01.224Z,30.30
2018-12-10T06:09:30.480Z,30.50
2018-12-10T06:11:59.811Z,30.10
2018-12-10T06:14:29.164Z,30.20
2018-12-10T06:16:58.467Z,30.10
2018-12-10T06:19:27.768Z,30.00
2018-12-10T06:21:57.067Z,30.20
2018-12-10T06:24:26.343Z,30.00
2018-12-10T06:26:55.548Z,30.00
2018-12-10T06:29:24.787Z,30.00
2018-12-10T06:31:54.064Z,30.00
2018-12-10T06:34:23.452Z,30.00
2018-12-10T06:36:52.843Z,30.00
2018-12-10T06:39:22.027Z,29.80
2018-12-10T06:41:51.306Z,29.80
2018-12-10T06:44:20.564Z,29.60
2018-12-10T06:46:49.867Z,29.70
2018-12-10T06:49:19.115Z,29.80
2018-12-10T06:51:48.388Z,29.90
2018-12-10T06:54:17.628Z,29.80
2018-12-10T06:56:46.979Z,30.00
2018-12-10T06:59:16.263Z,30.00
2018-12-10T07:01:45.548Z,29.90
2018-12-10T07:04:14.724Z,29.70
2018-12-10T07:06:43.972Z,29.60
2018-12-10T07:09:13.198Z,29.50
2018-12-10T07:11:42.611Z,29.00
2018-12-10T07:14:11.988Z,29.10
2018-12-10T07:16:41.331Z,28.90
2018-12-10T07:19:10.612Z,28.80
2018-12-10T07:21:39.840Z,28.70
2018-12-10T07:24:09.092Z,28.90
2018-12-10T07:26:38.391Z,29.20
2018-12-10T07:29:07.699Z,29.00
2018-12-10T07:31:36.997Z,28.70
2018-12-10T07:34:06.324Z,28.70
2018-12-10T07:36:35.664Z,28.80
2018-12-10T07:39:07.773Z,28.60
2018-12-10T07:41:37.016Z,28.40
2018-12-10T07:44:06.310Z,27.90
2018-12-10T07:46:35.563Z,28.10
2018-12-10T07:49:04.867Z,28.50
2018-12-10T07:51:34.192Z,28.60
2018-12-10T07:54:03.568Z,28.70
2018-12-10T07:56:32.851Z,29.50
2018-12-10T07:59:02.113Z,29.30
2018-12-10T08:01:31.392Z,29.20
2018-12-10T08:04:00.667Z,29.00
2018-12-10T08:06:29.955Z,28.50
2018-12-10T08:08:59.251Z,28.30
2018-12-10T08:11:28.466Z,28.40
2018-12-10T08:13:57.655Z,28.00
2018-12-10T08:16:26.992Z,28.20
2018-12-10T08:18:56.194Z,27.90
2018-12-10T08:21:25.507Z,27.80
2018-12-10T08:23:54.747Z,27.90
2018-12-10T08:26:23.948Z,27.80
2018-12-10T08:29:00.043Z,27.80
2018-12-10T08:31:24.564Z,28.00
2018-12-10T08:33:54.101Z,28.00
2018-12-10T08:36:23.328Z,28.60
2018-12-10T08:38:52.558Z,29.10
2018-12-10T08:41:21.931Z,28.50
2018-12-10T08:43:51.200Z,28.00
2018-12-10T08:46:20.578Z,27.80
2018-12-10T08:48:49.877Z,27.40
2018-12-10T08:51:19.230Z,27.40
2018-12-10T08:53:48.747Z,27.40
2018-12-10T08:56:17.999Z,27.50
2018-12-10T08:58:47.297Z,27.40
2018-12-10T09:01:16.663Z,27.50
2018-12-10T09:03:45.974Z,27.90
2018-12-10T09:06:15.337Z,27.80
2018-12-10T09:08:44.591Z,27.60
2018-12-10T09:11:13.939Z,28.00
2018-12-10T09:13:43.183Z,28.70
2018-12-10T09:16:12.575Z,28.50
2018-12-10T09:18:41.841Z,28.00
2018-12-10T09:21:11.080Z,27.40
2018-12-10T09:23:40.343Z,27.50
2018-12-10T09:26:09.760Z,28.10
2018-12-10T09:28:38.989Z,28.40
2018-12-10T09:31:08.158Z,27.90
2018-12-10T09:33:37.386Z,27.80
2018-12-10T09:36:06.746Z,28.00
2018-12-10T09:38:36.060Z,28.10
2018-12-10T09:41:05.567Z,27.80
2018-12-10T09:43:35.759Z,27.40
2018-12-10T09:46:05.135Z,27.30
2018-12-10T09:48:34.586Z,27.70
2018-12-10T09:51:03.787Z,28.10
2018-12-10T09:53:33.135Z,28.10
2018-12-10T09:56:02.414Z,27.60
2018-12-10T09:58:31.605Z,27.40
2018-12-10T10:01:00.831Z,27.90
2018-12-10T10:03:30.143Z,27.70
2018-12-10T10:05:59.480Z,27.70
2018-12-10T10:08:28.776Z,27.80
2018-12-10T10:10:58.000Z,27.20
2018-12-10T10:13:27.303Z,27.50
2018-12-10T10:15:56.643Z,28.10
2018-12-10T10:18:25.934Z,27.80
2018-12-10T10:20:55.190Z,27.50
2018-12-10T10:23:24.511Z,27.70
2018-12-10T10:25:53.840Z,27.80
2018-12-10T10:28:23.256Z,28.10
2018-12-10T10:30:52.516Z,28.40
2018-12-10T10:33:21.756Z,28.70
2018-12-10T10:35:51.113Z,28.60
2018-12-10T10:38:20.410Z,28.50
2018-12-10T10:40:49.789Z,29.00
2018-12-10T10:43:19.099Z,28.50
2018-12-10T10:45:48.636Z,28.70
2018-12-10T10:48:17.937Z,28.60
2018-12-10T10:50:47.367Z,28.60
2018-12-10T10:53:16.826Z,28.70
2018-12-10T10:55:46.106Z,29.10
2018-12-10T10:58:15.359Z,29.50
2018-12-10T11:00:49.851Z,29.50
2018-12-10T11:03:24.150Z,29.30
2018-12-10T11:05:53.418Z,29.60
2018-12-10T11:08:22.687Z,29.90
2018-12-10T11:10:51.988Z,29.50
2018-12-10T11:13:21.343Z,28.90
2018-12-10T11:15:50.480Z,30.00
2018-12-10T11:18:19.689Z,31.90
2018-12-10T11:20:48.871Z,32.20
2018-12-10T11:23:18.092Z,30.90
2018-12-10T11:25:47.243Z,31.30
2018-12-10T11:28:16.578Z,31.30
2018-12-10T11:30:45.739Z,31.00
2018-12-10T11:33:15.157Z,31.10
2018-12-10T11:35:44.336Z,31.50
2018-12-10T11:38:13.516Z,30.30
2018-12-10T11:40:42.688Z,30.50
2018-12-10T11:43:11.961Z,31.10
2018-12-10T11:45:41.096Z,31.20
2018-12-10T11:48:10.316Z,31.20
2018-12-10T11:50:39.463Z,31.70
2018-12-10T11:53:08.641Z,32.90
2018-12-10T11:55:37.782Z,33.80
2018-12-10T11:58:07.038Z,34.40
2018-12-10T12:00:36.235Z,34.00
2018-12-10T12:03:05.406Z,34.50
2018-12-10T12:05:34.614Z,33.60
2018-12-10T12:08:03.807Z,33.10
2018-12-10T12:10:32.951Z,32.10
2018-12-10T12:13:02.144Z,32.50
2018-12-10T12:15:31.444Z,32.70
2018-12-10T12:18:00.646Z,31.60
2018-12-10T12:20:29.828Z,33.30
2018-12-10T12:22:59.108Z,34.40
2018-12-10T12:25:28.303Z,34.70
2018-12-10T12:27:57.466Z,34.30
2018-12-10T12:30:26.697Z,33.10
2018-12-10T12:32:55.882Z,33.40
2018-12-10T12:35:25.023Z,33.60
2018-12-10T12:37:54.208Z,33.90
2018-12-10T12:40:23.347Z,34.90
2018-12-10T12:42:52.535Z,33.20
2018-12-10T12:45:21.851Z,32.10
2018-12-10T12:47:50.995Z,33.70
2018-12-10T12:50:20.146Z,33.70
2018-12-10T12:52:49.326Z,33.00
2018-12-10T12:55:18.504Z,33.20
2018-12-10T12:57:47.690Z,34.40
2018-12-10T13:00:17.753Z,33.80
2018-12-10T13:02:46.938Z,32.80
2018-12-10T13:05:16.078Z,32.80
2018-12-10T13:07:45.280Z,32.00
2018-12-10T13:10:14.470Z,31.30
2018-12-10T13:12:43.604Z,31.20
2018-12-10T13:15:12.749Z,30.30
2018-12-10T13:17:41.919Z,31.30
2018-12-10T13:20:11.147Z,32.10
2018-12-10T13:22:47.074Z,31.50
2018-12-10T13:25:11.535Z,32.00
2018-12-10T13:27:40.665Z,29.10
2018-12-10T13:30:16.246Z,29.90
2018-12-10T13:32:45.470Z,31.30
2018-12-10T13:35:14.626Z,32.80
2018-12-10T13:37:45.935Z,32.70
2018-12-10T13:40:15.078Z,31.60
2018-12-10T13:42:44.270Z,31.30
2018-12-10T13:45:13.612Z,32.00
2018-12-10T13:47:42.817Z,30.70
2018-12-10T13:50:11.968Z,30.90
2018-12-10T13:52:41.160Z,31.50
2018-12-10T13:55:10.312Z,29.60
2018-12-10T13:57:39.466Z,30.90
2018-12-10T14:00:10.663Z,30.80
2018-12-10T14:02:39.927Z,30.30
2018-12-10T14:05:13.799Z,30.30
2018-12-10T14:07:47.953Z,31.40
2018-12-10T14:10:14.167Z,31.20
2018-12-10T14:12:43.378Z,31.10
2018-12-10T14:15:12.687Z,31.00
2018-12-10T14:17:41.952Z,29.90
2018-12-10T14:20:11.264Z,30.00
2018-12-10T14:22:40.466Z,31.10
2018-12-10T14:25:19.202Z,31.80
2018-12-10T14:27:48.347Z,31.90
2018-12-10T14:30:17.611Z,31.80
2018-12-10T14:32:46.907Z,31.80
2018-12-10T14:35:16.055Z,32.60
2018-12-10T14:37:45.283Z,30.80
2018-12-10T14:40:14.636Z,31.60
2018-12-10T14:42:51.068Z,31.40
2018-12-10T14:45:20.547Z,30.50
2018-12-10T14:47:53.225Z,30.60
2018-12-10T14:50:22.598Z,31.20
2018-12-10T14:52:52.190Z,31.10
2018-12-10T14:55:21.540Z,29.90
2018-12-10T14:57:50.688Z,30.30
2018-12-10T15:00:19.867Z,31.40
2018-12-10T15:02:49.159Z,31.60
2018-12-10T15:05:18.303Z,31.90
2018-12-10T15:07:47.515Z,30.50
2018-12-10T15:10:16.675Z,30.90
2018-12-10T15:12:45.907Z,30.70
2018-12-10T15:15:15.152Z,31.00
2018-12-10T15:17:44.297Z,31.10
2018-12-10T15:20:15.184Z,31.60
2018-12-10T15:22:44.363Z,31.60
2018-12-10T15:25:13.516Z,31.90
2018-12-10T15:27:42.699Z,31.60
2018-12-10T15:30:13.087Z,30.80
2018-12-10T15:32:42.262Z,30.80
2018-12-10T15:35:17.843Z,30.30
2018-12-10T15:37:47.079Z,31.00
2018-12-10T15:40:16.252Z,31.20
2018-12-10T15:42:45.386Z,31.10
2018-12-10T15:45:14.594Z,31.30
2018-12-10T15:47:43.746Z,32.20
2018-12-10T15:50:13.143Z,32.60
2018-12-10T15:52:42.310Z,32.30
2018-12-10T15:55:11.460Z,32.90
2018-12-10T15:57:40.792Z,32.70
2018-12-10T16:00:10.731Z,32.70
2018-12-10T16:02:39.947Z,33.20
2018-12-10T16:05:09.174Z,33.10
2018-12-10T16:07:38.404Z,32.80
2018-12-10T16:10:09.311Z,32.90
2018-12-10T16:12:38.501Z,32.90
2018-12-10T16:15:08.207Z,32.00
2018-12-10T16:17:37.417Z,32.10
2018-12-10T16:20:08.220Z,32.20
2018-12-10T16:22:37.487Z,32.10
2018-12-10T16:25:06.562Z,32.70
2018-12-10T16:27:35.935Z,32.50
2018-12-10T16:30:06.173Z,32.30
2018-12-10T16:32:35.223Z,31.70
2018-12-10T16:35:04.373Z,31.50
2018-12-10T16:37:33.407Z,31.20
2018-12-10T16:40:02.361Z,31.10
2018-12-10T16:42:31.346Z,31.10
2018-12-10T16:45:00.289Z,30.80
2018-12-10T16:47:29.280Z,31.40
2018-12-10T16:49:58.333Z,32.40
2018-12-10T16:52:27.280Z,32.10
2018-12-10T16:54:56.327Z,31.40
2018-12-10T16:57:25.380Z,31.80
2018-12-10T16:59:54.576Z,32.00
2018-12-10T17:02:23.716Z,32.00
2018-12-10T17:04:52.782Z,31.60
2018-12-10T17:07:21.918Z,31.10
2018-12-10T17:09:51.038Z,31.00
2018-12-10T17:12:20.132Z,31.10
2018-12-10T17:14:49.192Z,31.30
2018-12-10T17:17:18.231Z,31.20
2018-12-10T17:19:47.280Z,31.00
2018-12-10T17:22:16.476Z,31.20
2018-12-10T17:24:45.578Z,31.30
2018-12-10T17:27:14.667Z,31.10
2018-12-10T17:29:43.824Z,30.80
2018-12-10T17:32:12.915Z,30.80
2018-12-10T17:34:41.955Z,31.20
2018-12-10T17:37:11.105Z,30.60
2018-12-10T17:39:40.205Z,30.70
2018-12-10T17:42:09.392Z,30.60
2018-12-10T17:44:38.566Z,30.20
2018-12-10T17:47:08.864Z,30.00
2018-12-10T17:49:38.319Z,30.80
2018-12-10T17:52:07.432Z,30.80
2018-12-10T17:54:36.491Z,30.80
2018-12-10T17:57:05.622Z,30.40
2018-12-10T17:59:34.676Z,30.20
2018-12-10T18:02:03.894Z,30.10
2018-12-10T18:04:32.964Z,30.30
2018-12-10T18:07:02.200Z,30.30
2018-12-10T18:09:31.253Z,31.40
2018-12-10T18:12:00.539Z,30.60
2018-12-10T18:14:29.743Z,29.90
2018-12-10T18:16:59.007Z,29.50
2018-12-10T18:19:28.217Z,29.40
2018-12-10T18:21:57.386Z,28.90
2018-12-10T18:24:26.520Z,28.70
2018-12-10T18:26:55.803Z,28.70
2018-12-10T18:29:24.953Z,29.10
2018-12-10T18:31:54.111Z,29.10
2018-12-10T18:34:23.540Z,29.10
2018-12-10T18:36:52.690Z,28.90
2018-12-10T18:39:21.924Z,29.10
2018-12-10T18:41:51.135Z,29.20
2018-12-10T18:44:20.334Z,29.10
2018-12-10T18:46:49.461Z,28.80
2018-12-10T18:49:25.422Z,28.70
2018-12-10T18:51:54.608Z,28.50
2018-12-10T18:54:23.868Z,28.40
2018-12-10T18:56:53.054Z,28.40
2018-12-10T18:59:22.214Z,28.50
2018-12-10T19:01:51.435Z,28.60
2018-12-10T19:04:20.612Z,28.50
2018-12-10T19:06:49.731Z,28.40
2018-12-10T19:09:19.052Z,27.90
2018-12-10T19:11:48.261Z,27.80
2018-12-10T19:14:17.431Z,27.70
2018-12-10T19:16:46.536Z,27.40
2018-12-10T19:19:15.705Z,27.40
2018-12-10T19:21:44.883Z,27.30
2018-12-10T19:24:14.096Z,27.20
2018-12-10T19:26:43.328Z,27.10
2018-12-10T19:29:12.509Z,26.50
2018-12-10T19:31:41.719Z,26.50
2018-12-10T19:34:10.915Z,26.80
2018-12-10T19:36:40.173Z,26.80
2018-12-10T19:39:09.484Z,26.50
2018-12-10T19:41:38.667Z,25.90
2018-12-10T19:44:07.830Z,26.50
2018-12-10T19:46:37.193Z,27.00
2018-12-10T19:49:06.377Z,27.00
2018-12-10T19:51:35.599Z,27.00
2018-12-10T19:54:04.913Z,27.20
2018-12-10T19:56:34.078Z,27.10
2018-12-10T19:59:03.298Z,27.40
2018-12-10T20:01:32.418Z,27.60
2018-12-10T20:04:01.584Z,27.50
2018-12-10T20:06:33.548Z,27.60
2018-12-10T20:09:02.937Z,27.70
2018-12-10T20:11:32.186Z,27.70
2018-12-10T20:14:01.503Z,27.70
2018-12-10T20:16:30.672Z,27.70
2018-12-10T20:18:59.958Z,27.60
2018-12-10T20:21:29.200Z,27.70
2018-12-10T20:23:58.355Z,27.80
2018-12-10T20:26:27.604Z,27.70
2018-12-10T20:28:56.843Z,27.80
2018-12-10T20:31:26.120Z,27.20
2018-12-10T20:33:55.594Z,26.80
2018-12-10T20:36:24.888Z,26.70
2018-12-10T20:38:54.110Z,26.60
2018-12-10T20:41:23.319Z,26.30
2018-12-10T20:43:52.487Z,26.20
2018-12-10T20:46:21.707Z,26.20
2018-12-10T20:48:50.996Z,26.40
2018-12-10T20:51:21.154Z,25.80
2018-12-10T20:53:50.469Z,25.90
2018-12-10T20:56:19.699Z,26.10
2018-12-10T20:58:48.923Z,25.50
2018-12-10T21:01:18.193Z,25.90
2018-12-10T21:03:47.577Z,25.10
2018-12-10T21:06:22.121Z,24.60
2018-12-10T21:08:51.386Z,24.30
2018-12-10T21:11:20.563Z,24.70
2018-12-10T21:13:50.001Z,25.00
2018-12-10T21:16:19.272Z,25.00
2018-12-10T21:18:48.491Z,24.90
2018-12-10T21:21:17.748Z,24.70
2018-12-10T21:23:46.900Z,24.70
2018-12-10T21:26:16.084Z,24.60
2018-12-10T21:28:45.293Z,24.60
2018-12-10T21:31:14.580Z,24.60
2018-12-10T21:33:43.817Z,24.80
2018-12-10T21:36:13.108Z,25.60
2018-12-10T21:38:45.520Z,25.30
2018-12-10T21:41:13.477Z,25.10
2018-12-10T21:43:42.663Z,25.10
2018-12-10T21:46:11.816Z,24.80
2018-12-10T21:48:41.201Z,24.90
2018-12-10T21:51:10.455Z,24.90
2018-12-10T21:53:39.688Z,24.90
2018-12-10T21:56:08.976Z,24.90
2018-12-10T21:58:38.251Z,24.70
2018-12-10T22:01:07.860Z,25.00
2018-12-10T22:03:37.305Z,25.00
2018-12-10T22:06:06.435Z,24.60
2018-12-10T22:08:35.726Z,24.40
2018-12-10T22:11:04.944Z,24.40
2018-12-10T22:13:34.125Z,24.70
2018-12-10T22:16:03.379Z,24.60
2018-12-10T22:18:32.637Z,24.40
2018-12-10T22:21:01.857Z,24.60
2018-12-10T22:23:31.137Z,24.60
2018-12-10T22:26:00.372Z,24.80
2018-12-10T22:28:29.614Z,24.90
2018-12-10T22:30:58.856Z,25.00
2018-12-10T22:33:28.035Z,24.70
2018-12-10T22:35:57.319Z,24.30
2018-12-10T22:38:26.876Z,24.40
2018-12-10T22:40:56.113Z,24.40
2018-12-10T22:43:25.402Z,24.00
2018-12-10T22:45:54.569Z,24.10
2018-12-10T22:48:23.839Z,24.30
2018-12-10T22:50:55.984Z,24.60
2018-12-10T22:53:25.195Z,24.70
2018-12-10T22:55:54.402Z,24.80
2018-12-10T22:58:24.405Z,24.70
2018-12-10T23:00:53.957Z,24.50
2018-12-10T23:03:23.166Z,24.60
2018-12-10T23:05:52.347Z,24.50
2018-12-10T23:08:21.580Z,24.70
2018-12-10T23:10:50.729Z,24.70
2018-12-10T23:13:19.915Z,24.80
2018-12-10T23:15:49.200Z,24.70
2018-12-10T23:18:18.411Z,24.70
2018-12-10T23:20:47.643Z,24.70
2018-12-10T23:23:16.912Z,24.80
2018-12-10T23:25:46.139Z,24.70
2018-12-10T23:28:15.346Z,24.90
2018-12-10T23:30:44.496Z,25.10
2018-12-10T23:33:13.625Z,25.50
2018-12-10T23:35:42.775Z,25.50
2018-12-10T23:38:11.932Z,25.50
2018-12-10T23:40:41.111Z,25.50
2018-12-10T23:43:15.445Z,25.30
2018-12-10T23:45:44.698Z,25.10
2018-12-10T23:48:13.943Z,24.70
2018-12-10T23:50:43.140Z,25.00
2018-12-10T23:53:12.309Z,25.30
2018-12-10T23:55:41.516Z,25.20
2018-12-10T23:58:10.768Z,25.20
